Time;durP1;ratioP1;P1;durP2;ratioP2;P2;SDS_P1;SDS_P2;PMS_P1;PMS_P2;Temp;Humidity;BMP_temperature;BMP_pressure;BME280_temperature;BME280_humidity;BME280_pressure;Samples;Min_cycle;Max_cycle;Signal;HPM_P1;HPM_P2
2021/09/12 00:02:23;;;;;;;9.80;3.90;;;;;;;18.59;59.84;98820.28;5053288;28;20016;-49
2021/09/12 00:04:48;;;;;;;11.15;4.18;;;;;;;18.42;60.14;98817.69;5072135;28;20495;-50
2021/09/12 00:07:14;;;;;;;4.57;3.20;;;;;;;18.17;60.72;98826.97;5070766;28;20056;-50
2021/09/12 00:09:40;;;;;;;9.68;3.53;;;;;;;18.07;61.58;98829.50;5072043;28;20036;-49
2021/09/12 00:12:06;;;;;;;4.57;3.67;;;;;;;18.08;61.69;98827.66;5072027;28;20025;-49
2021/09/12 00:14:32;;;;;;;4.25;3.10;;;;;;;17.99;61.86;98835.25;5053931;28;20082;-49
2021/09/12 00:16:58;;;;;;;8.13;3.20;;;;;;;17.85;61.93;98831.31;5071681;28;20048;-49
2021/09/12 00:19:24;;;;;;;6.20;3.22;;;;;;;17.84;62.31;98835.03;5053877;28;20115;-49
2021/09/12 00:21:51;;;;;;;8.48;3.53;;;;;;;17.96;62.15;98830.41;5071838;28;20032;-50
2021/09/12 00:24:17;;;;;;;8.35;3.58;;;;;;;17.98;61.62;98828.31;5071857;28;20048;-50
2021/09/12 00:26:43;;;;;;;7.38;3.65;;;;;;;17.75;62.01;98835.41;5071798;28;20021;-50
2021/09/12 00:29:09;;;;;;;5.70;3.70;;;;;;;17.63;62.53;98833.91;5053800;28;20462;-49
2021/09/12 00:31:36;;;;;;;8.23;2.95;;;;;;;17.66;62.76;98830.75;5071620;28;20534;-49
2021/09/12 00:34:02;;;;;;;7.93;3.83;;;;;;;17.50;63.09;98835.00;5071771;28;20206;-49
2021/09/12 00:36:28;;;;;;;10.23;5.18;;;;;;;17.51;63.27;98834.78;5071691;28;20016;-49
2021/09/12 00:38:53;;;;;;;7.15;3.90;;;;;;;17.55;63.53;98835.91;5071649;28;20027;-49
2021/09/12 00:41:19;;;;;;;4.70;3.38;;;;;;;17.60;63.40;98842.31;5071700;28;20025;-50
2021/09/12 00:43:45;;;;;;;5.85;4.05;;;;;;;17.70;62.84;98840.63;5053671;28;20486;-49
2021/09/12 00:46:11;;;;;;;4.80;3.35;;;;;;;17.56;62.73;98834.03;5071625;28;20482;-50
2021/09/12 00:48:37;;;;;;;7.55;3.75;;;;;;;17.35;63.22;98833.72;5071624;28;20061;-49
2021/09/12 00:51:04;;;;;;;5.93;3.50;;;;;;;17.23;64.12;98838.31;5071425;28;20371;-49
2021/09/12 00:53:32;;;;;;;17.70;10.00;;;;;;;17.35;64.25;98825.78;5071573;28;20040;-49
2021/09/12 00:56:00;;;;;;;6.13;4.07;;;;;;;17.46;63.59;98831.22;5071534;28;20023;-49
2021/09/12 00:58:28;;;;;;;8.55;4.53;;;;;;;17.43;63.60;98829.06;5071565;28;20109;-50
2021/09/12 01:00:54;;;;;;;10.85;4.78;;;;;;;17.25;63.88;98830.91;5036994;28;20025;-48
2021/09/12 01:03:20;;;;;;;8.50;4.20;;;;;;;17.30;64.49;98827.53;5071525;28;20021;-49
2021/09/12 01:05:46;;;;;;;9.07;4.20;;;;;;;17.49;64.01;98823.59;5071718;28;20063;-50
2021/09/12 01:08:12;;;;;;;10.15;4.00;;;;;;;17.57;63.66;98825.84;5071484;28;20044;-50
2021/09/12 01:10:40;;;;;;;6.60;4.32;;;;;;;17.52;63.45;98824.97;5053393;28;20033;-50
2021/09/12 01:13:05;;;;;;;7.57;4.00;;;;;;;17.40;63.29;98821.59;5072686;28;20044;-49
2021/09/12 01:15:32;;;;;;;7.97;3.97;;;;;;;17.28;63.44;98816.34;5056949;28;20131;-50
2021/09/12 01:17:57;;;;;;;9.85;5.32;;;;;;;17.22;63.86;98818.13;5057291;28;20044;-49
2021/09/12 01:20:23;;;;;;;6.72;3.53;;;;;;;17.08;64.17;98814.16;5075146;28;20020;-50
2021/09/12 01:22:50;;;;;;;8.68;3.60;;;;;;;17.01;64.23;98810.88;5075175;28;20017;-50
2021/09/12 01:25:16;;;;;;;5.50;3.03;;;;;;;17.02;64.20;98815.91;5075147;28;20025;-51
2021/09/12 01:27:42;;;;;;;7.22;3.22;;;;;;;17.12;64.14;98812.66;5075039;28;20497;-51
2021/09/12 01:30:09;;;;;;;5.15;3.45;;;;;;;17.15;63.77;98812.19;5073693;28;20063;-51
2021/09/12 01:32:35;;;;;;;4.28;3.20;;;;;;;17.10;63.91;98814.72;5074993;28;20380;-51
2021/09/12 01:35:01;;;;;;;5.57;3.35;;;;;;;17.07;63.69;98817.88;5074951;28;20021;-52
2021/09/12 01:37:26;;;;;;;12.13;4.53;;;;;;;16.84;64.27;98810.84;5074834;28;20123;-51
2021/09/12 01:39:52;;;;;;;8.15;3.20;;;;;;;16.69;64.92;98814.78;5073495;28;20123;-52
2021/09/12 01:42:18;;;;;;;7.80;3.80;;;;;;;16.52;65.35;98813.91;5074860;28;20103;-50
2021/09/12 01:44:45;;;;;;;6.78;3.38;;;;;;;16.45;65.45;98814.06;5074739;28;20059;-51
2021/09/12 01:47:11;;;;;;;7.25;4.13;;;;;;;16.38;66.13;98818.72;5056729;28;20498;-51
2021/09/12 01:49:37;;;;;;;6.38;4.18;;;;;;;16.22;66.15;98816.78;5074701;28;20045;-52
2021/09/12 01:52:03;;;;;;;4.60;3.72;;;;;;;16.12;66.80;98817.38;5074866;28;20490;-51
2021/09/12 01:54:29;;;;;;;4.97;3.30;;;;;;;16.07;66.78;98812.78;5056597;28;20016;-51
2021/09/12 01:56:55;;;;;;;6.90;3.78;;;;;;;16.12;66.92;98812.09;5056514;28;20394;-51
2021/09/12 01:59:20;;;;;;;12.45;3.55;;;;;;;16.21;66.84;98813.31;5074390;28;20028;-51
2021/09/12 02:01:46;;;;;;;5.95;3.33;;;;;;;16.26;66.52;98820.56;5073145;28;20115;-52
2021/09/12 02:04:12;;;;;;;8.05;4.28;;;;;;;16.29;66.59;98817.47;5074449;28;20028;-52
2021/09/12 02:06:38;;;;;;;5.28;3.20;;;;;;;16.12;66.48;98817.38;5073026;28;20024;-52
2021/09/12 02:09:04;;;;;;;7.82;3.83;;;;;;;15.86;67.11;98816.84;5074319;28;20494;-52
2021/09/12 02:11:30;;;;;;;5.38;3.42;;;;;;;15.66;67.96;98816.34;5055845;28;20025;-51
2021/09/12 02:13:55;;;;;;;7.47;3.25;;;;;;;15.77;68.64;98821.69;5074254;28;20550;-52
2021/09/12 02:16:22;;;;;;;5.35;3.53;;;;;;;16.09;67.69;98812.53;5055945;28;20056;-52
2021/09/12 02:18:48;;;;;;;4.70;3.08;;;;;;;16.20;66.92;98822.31;5074466;28;20032;-52
2021/09/12 02:21:13;;;;;;;6.80;5.95;;;;;;;16.22;66.72;98819.41;5055988;28;20031;-52
2021/09/12 02:23:39;;;;;;;7.82;3.85;;;;;;;16.24;66.77;98825.28;5055863;28;20101;-52
2021/09/12 02:26:05;;;;;;;9.15;3.17;;;;;;;16.14;66.61;98818.75;5055005;28;20056;-52
2021/09/12 02:28:30;;;;;;;5.93;3.28;;;;;;;15.96;67.09;98818.91;5073979;28;20016;-51
2021/09/12 02:30:56;;;;;;;5.88;3.45;;;;;;;15.75;67.64;98813.16;5073923;28;20050;-51
2021/09/12 02:33:22;;;;;;;12.75;11.02;;;;;;;15.52;68.26;98815.78;5072600;28;20520;-52
2021/09/12 02:35:47;;;;;;;7.50;4.00;;;;;;;15.29;69.22;98813.88;5073827;28;20103;-52
2021/09/12 02:38:13;;;;;;;7.88;3.33;;;;;;;15.16;69.70;98815.72;5055843;28;20024;-51
2021/09/12 02:40:40;;;;;;;4.82;3.30;;;;;;;15.05;69.99;98818.31;5055551;28;20513;-51
2021/09/12 02:43:06;;;;;;;6.28;3.30;;;;;;;15.14;70.36;98817.78;5055708;28;20021;-51
2021/09/12 02:45:33;;;;;;;5.65;5.03;;;;;;;15.33;70.16;98820.34;5073629;28;20414;-52
2021/09/12 02:47:59;;;;;;;6.00;3.65;;;;;;;15.69;69.46;98810.59;5073661;28;20066;-51
2021/09/12 02:50:24;;;;;;;7.50;3.53;;;;;;;16.00;68.38;98812.09;5055583;28;20089;-52
2021/09/12 02:52:50;;;;;;;5.05;3.30;;;;;;;16.16;67.50;98808.75;5073474;28;20435;-51
2021/09/12 02:55:16;;;;;;;6.28;3.17;;;;;;;16.22;66.92;98812.31;5055409;28;20025;-52
2021/09/12 02:57:41;;;;;;;6.38;3.35;;;;;;;16.24;66.86;98817.34;5073402;28;20048;-52
2021/09/12 03:00:08;;;;;;;4.15;3.50;;;;;;;16.09;66.84;98804.59;5055352;28;20028;-52
2021/09/12 03:02:34;;;;;;;4.28;3.85;;;;;;;15.74;67.57;98808.09;5073334;28;20055;-52
2021/09/12 03:04:59;;;;;;;9.90;7.20;;;;;;;15.47;68.25;98802.41;5073295;28;20462;-51
2021/09/12 03:07:25;;;;;;;7.10;4.32;;;;;;;15.35;68.70;98811.16;5073261;28;20024;-52
2021/09/12 03:09:51;;;;;;;6.65;4.10;;;;;;;15.42;69.13;98810.25;5055155;28;20108;-52
2021/09/12 03:12:16;;;;;;;5.97;3.25;;;;;;;15.55;68.73;98810.00;5073150;28;20490;-52
2021/09/12 03:14:42;;;;;;;5.82;3.50;;;;;;;15.48;68.44;98806.69;5055043;28;20114;-52
2021/09/12 03:17:08;;;;;;;8.40;3.45;;;;;;;15.41;69.05;98806.78;5072771;28;20127;-51
2021/09/12 03:19:34;;;;;;;5.47;3.63;;;;;;;15.54;68.51;98801.28;5055025;28;20417;-52
2021/09/12 03:22:00;;;;;;;7.93;3.45;;;;;;;15.64;68.43;98800.69;5055002;28;20036;-51
2021/09/12 03:24:26;;;;;;;6.35;3.17;;;;;;;15.67;67.89;98797.59;5072841;28;20116;-52
2021/09/12 03:26:51;;;;;;;11.35;4.25;;;;;;;15.55;67.90;98799.44;5072819;28;20112;-51
2021/09/12 03:29:17;;;;;;;6.28;3.40;;;;;;;15.43;68.23;98801.25;5054762;28;20429;-51
2021/09/12 03:31:43;;;;;;;13.63;4.43;;;;;;;15.35;68.82;98803.22;5071393;28;20035;-52
2021/09/12 03:34:08;;;;;;;6.53;3.45;;;;;;;15.28;68.98;98805.16;5054681;28;20032;-51
2021/09/12 03:36:34;;;;;;;3.50;3.20;;;;;;;15.10;69.26;98806.03;5070995;28;20024;-51
2021/09/12 03:38:59;;;;;;;8.98;3.67;;;;;;;14.89;70.05;98806.56;5072582;28;20027;-52
2021/09/12 03:41:25;;;;;;;6.93;3.17;;;;;;;14.80;70.59;98800.00;5054546;28;20060;-52
2021/09/12 03:43:51;;;;;;;13.63;12.27;;;;;;;14.80;70.18;98805.28;5072414;28;20031;-52
2021/09/12 03:46:16;;;;;;;8.68;4.95;;;;;;;14.87;70.34;98805.97;5071082;28;20079;-52
2021/09/12 03:48:42;;;;;;;6.18;3.55;;;;;;;14.91;70.24;98796.56;5072343;28;20509;-51
2021/09/12 03:51:08;;;;;;;6.95;3.05;;;;;;;14.98;70.20;98803.38;5072839;28;20086;-52
2021/09/12 03:53:34;;;;;;;4.72;3.47;;;;;;;15.01;69.94;98804.78;5072326;28;20482;-51
2021/09/12 03:56:03;;;;;;;13.23;6.60;;;;;;;15.12;70.24;98808.47;5054325;28;20117;-51
2021/09/12 03:58:28;;;;;;;8.70;6.47;;;;;;;15.11;69.85;98806.84;5070953;28;20025;-51
2021/09/12 04:00:54;;;;;;;4.07;3.38;;;;;;;14.95;69.87;98806.47;5072023;28;20040;-52
2021/09/12 04:03:20;;;;;;;7.07;3.28;;;;;;;14.87;70.05;98809.44;5072119;28;20025;-51
2021/09/12 04:05:45;;;;;;;7.10;3.33;;;;;;;14.89;70.57;98812.66;5054152;28;20511;-52
2021/09/12 04:08:11;;;;;;;10.00;4.85;;;;;;;14.78;70.13;98802.84;5072069;28;20091;-52
2021/09/12 04:10:37;;;;;;;4.28;3.60;;;;;;;14.67;70.45;98809.72;5070701;28;20032;-52
2021/09/12 04:13:02;;;;;;;6.05;3.63;;;;;;;14.52;71.07;98804.78;5072314;28;20058;-52
2021/09/12 04:15:28;;;;;;;5.63;3.70;;;;;;;14.35;71.45;98811.72;5053661;28;20032;-53
2021/09/12 04:17:54;;;;;;;7.85;4.40;;;;;;;14.26;72.21;98803.28;5070717;28;20033;-52
2021/09/12 04:20:20;;;;;;;5.70;5.15;;;;;;;14.26;73.03;98808.56;5053825;28;20039;-51
2021/09/12 04:22:45;;;;;;;5.28;3.55;;;;;;;14.21;72.96;98816.34;5071899;28;20017;-52
2021/09/12 04:25:11;;;;;;;9.85;4.10;;;;;;;14.13;72.83;98804.25;5071812;28;20117;-51
2021/09/12 04:27:37;;;;;;;7.68;5.93;;;;;;;14.12;72.99;98807.09;5053861;28;20110;-51
2021/09/12 04:30:05;;;;;;;4.30;3.90;;;;;;;14.05;73.00;98812.44;5053808;28;20044;-52
2021/09/12 04:32:31;;;;;;;4.18;3.75;;;;;;;14.01;73.40;98813.13;5071780;28;20020;-50
2021/09/12 04:34:57;;;;;;;5.68;4.30;;;;;;;13.92;73.33;98810.78;5053760;28;20106;-51
2021/09/12 04:37:22;;;;;;;6.22;3.42;;;;;;;13.89;73.38;98815.66;5053607;28;20115;-51
2021/09/12 04:39:48;;;;;;;8.43;5.50;;;;;;;13.90;73.50;98810.16;5071685;28;20025;-51
2021/09/12 04:42:14;;;;;;;5.90;3.97;;;;;;;13.92;73.23;98810.78;5053551;28;20489;-51
2021/09/12 04:44:39;;;;;;;6.50;4.05;;;;;;;13.94;73.60;98807.88;5053657;28;20032;-51
2021/09/12 04:47:05;;;;;;;3.90;3.17;;;;;;;13.95;73.25;98818.22;5072299;28;20024;-51
2021/09/12 04:49:31;;;;;;;6.72;3.50;;;;;;;13.92;73.25;98812.56;5077992;28;20048;-51
2021/09/12 04:51:56;;;;;;;6.22;3.20;;;;;;;13.89;73.27;98811.19;5076950;28;20024;-51
2021/09/12 04:54:22;;;;;;;5.95;3.13;;;;;;;13.87;73.41;98812.44;5060227;28;20463;-51
2021/09/12 04:56:48;;;;;;;4.78;3.45;;;;;;;13.87;73.55;98809.81;5078252;28;20387;-52
2021/09/12 04:59:13;;;;;;;6.03;3.72;;;;;;;13.83;73.89;98813.91;5078181;28;20086;-51
2021/09/12 05:01:39;;;;;;;7.63;4.00;;;;;;;13.77;73.98;98816.38;5059929;28;20067;-51
2021/09/12 05:04:05;;;;;;;6.25;3.78;;;;;;;13.74;74.16;98814.19;5078209;28;20465;-51
2021/09/12 05:06:30;;;;;;;6.47;4.43;;;;;;;13.88;74.03;98811.41;5078098;28;20025;-51
2021/09/12 05:08:56;;;;;;;7.47;3.30;;;;;;;14.09;73.45;98816.25;5078071;28;20086;-52
2021/09/12 05:11:22;;;;;;;5.75;3.63;;;;;;;14.30;72.72;98816.84;5078029;28;20375;-51
2021/09/12 05:13:48;;;;;;;6.95;4.05;;;;;;;14.26;72.31;98807.75;5078062;28;20036;-52
2021/09/12 05:16:14;;;;;;;10.13;5.93;;;;;;;14.11;72.62;98823.97;5059756;28;20597;-51
2021/09/12 05:18:39;;;;;;;12.73;8.70;;;;;;;14.13;72.28;98830.63;5078046;28;20023;-51
2021/09/12 05:21:05;;;;;;;8.82;5.05;;;;;;;14.27;72.54;98833.94;5077944;28;20077;-51
2021/09/12 05:23:31;;;;;;;9.70;7.88;;;;;;;14.53;72.42;98824.09;5059828;28;20045;-51
2021/09/12 05:25:57;;;;;;;9.40;7.40;;;;;;;14.81;71.43;98823.56;5059924;28;20067;-52
2021/09/12 05:28:25;;;;;;;12.00;10.15;;;;;;;14.91;70.45;98821.16;5059966;28;20021;-52
2021/09/12 05:30:51;;;;;;;7.50;3.78;;;;;;;15.27;69.75;98830.00;5059909;28;20020;-51
2021/09/12 05:33:17;;;;;;;5.32;3.60;;;;;;;15.63;68.34;98817.59;5059730;28;20021;-51
2021/09/12 05:35:43;;;;;;;11.02;6.68;;;;;;;16.08;66.97;98824.97;5077770;28;20025;-52
2021/09/12 05:38:09;;;;;;;7.25;3.15;;;;;;;16.41;65.55;98826.19;5059856;28;20024;-52
2021/09/12 05:40:34;;;;;;;7.90;3.28;;;;;;;16.67;64.42;98816.06;5077746;28;20020;-51
2021/09/12 05:43:00;;;;;;;8.25;3.45;;;;;;;16.85;63.22;98823.84;5059752;28;20107;-51
2021/09/12 05:45:26;;;;;;;6.22;3.30;;;;;;;17.05;62.48;98823.41;5076355;28;20033;-51
2021/09/12 05:47:52;;;;;;;4.00;3.30;;;;;;;17.26;61.72;98823.75;5059726;28;20149;-51
2021/09/12 05:50:18;;;;;;;211.80;181.70;;;;;;;17.70;61.06;98822.03;5059698;28;20158;-52
2021/09/12 05:52:47;;;;;;;184.30;164.48;;;;;;;18.35;59.85;98817.06;5077697;28;20035;-52
2021/09/12 05:55:12;;;;;;;197.80;178.60;;;;;;;19.18;57.76;98824.88;5076334;28;20406;-51
2021/09/12 05:57:38;;;;;;;51.58;46.78;;;;;;;19.98;55.33;98821.47;5076368;28;20017;-50
2021/09/12 06:00:09;;;;;;;43.72;39.42;;;;;;;20.54;53.40;98819.84;5075233;28;20478;-50
2021/09/12 06:02:35;;;;;;;9.77;5.35;;;;;;;20.90;51.91;98817.28;5056325;28;20027;-50
2021/09/12 06:05:05;;;;;;;14.30;7.70;;;;;;;21.08;51.00;98820.50;5056455;28;20024;-49
2021/09/12 06:07:31;;;;;;;6.65;4.25;;;;;;;20.83;51.51;98829.28;5074442;28;20020;-49
2021/09/12 06:09:57;;;;;;;4.40;3.50;;;;;;;20.66;51.05;98826.81;5056247;28;20055;-49
2021/09/12 06:12:23;;;;;;;4.28;2.95;;;;;;;20.11;52.19;98824.47;5072942;28;20070;-49
2021/09/12 06:14:49;;;;;;;4.15;3.33;;;;;;;19.47;53.79;98822.72;5074305;28;20055;-49
2021/09/12 06:17:15;;;;;;;6.15;3.72;;;;;;;18.98;55.19;98830.03;5056009;28;20076;-50
2021/09/12 06:19:41;;;;;;;4.50;3.33;;;;;;;18.52;56.58;98836.41;5055962;28;20032;-49
2021/09/12 06:22:06;;;;;;;8.80;3.75;;;;;;;18.00;58.13;98844.81;5072819;28;20502;-49
2021/09/12 06:24:33;;;;;;;9.88;3.83;;;;;;;18.05;58.72;98844.06;5056045;28;20035;-49
2021/09/12 06:26:59;;;;;;;7.40;3.72;;;;;;;18.04;58.72;98842.47;5073959;28;20028;-49
2021/09/12 06:29:24;;;;;;;7.30;5.20;;;;;;;18.28;58.67;98845.69;5074007;28;20074;-50
2021/09/12 06:31:50;;;;;;;6.20;3.60;;;;;;;18.54;58.02;98842.28;5055956;28;20027;-50
2021/09/12 06:34:16;;;;;;;4.93;3.38;;;;;;;18.85;57.13;98845.31;5073909;28;20394;-49
2021/09/12 06:36:42;;;;;;;8.65;3.85;;;;;;;19.18;56.48;98848.84;5055649;28;20051;-50
2021/09/12 06:39:08;;;;;;;5.22;4.25;;;;;;;19.26;55.81;98851.03;5073863;28;20027;-50
2021/09/12 06:41:34;;;;;;;11.93;3.58;;;;;;;19.66;55.53;98849.75;5055727;28;20402;-49
2021/09/12 06:44:00;;;;;;;7.22;3.20;;;;;;;20.73;53.25;98840.72;5073792;28;20016;-50
2021/09/12 06:46:25;;;;;;;11.35;3.13;;;;;;;22.07;49.87;98849.53;5055660;28;20094;-50
2021/09/12 06:48:51;;;;;;;8.38;3.10;;;;;;;22.42;48.59;98843.31;5072330;28;20474;-50
2021/09/12 06:51:17;;;;;;;6.00;2.83;;;;;;;22.51;48.02;98846.19;5073551;28;20036;-50
2021/09/12 06:53:42;;;;;;;7.63;3.60;;;;;;;22.85;47.25;98853.53;5072195;28;20017;-50
2021/09/12 06:56:08;;;;;;;6.75;3.00;;;;;;;23.12;46.70;98847.78;5073433;28;20380;-50
2021/09/12 06:58:37;;;;;;;9.07;3.47;;;;;;;23.52;45.49;98845.81;5055542;28;20025;-50
2021/09/12 07:01:02;;;;;;;5.70;3.60;;;;;;;23.97;44.53;98843.03;5073312;28;20115;-50
2021/09/12 07:03:28;;;;;;;5.38;3.00;;;;;;;24.07;44.02;98841.03;5073282;28;20108;-50
2021/09/12 07:05:54;;;;;;;7.57;3.03;;;;;;;24.47;43.23;98844.31;5055281;28;20406;-50
2021/09/12 07:08:20;;;;;;;4.15;3.05;;;;;;;25.15;42.17;98834.25;5073107;28;20490;-50
2021/09/12 07:10:46;;;;;;;7.95;3.58;;;;;;;25.95;40.51;98840.44;5072622;28;20093;-50
2021/09/12 07:13:11;;;;;;;8.00;2.90;;;;;;;26.62;39.17;98839.94;5073125;28;20105;-50
2021/09/12 07:15:37;;;;;;;9.40;3.40;;;;;;;27.40;37.86;98844.38;5071528;28;20124;-50
2021/09/12 07:18:04;;;;;;;9.15;3.20;;;;;;;28.02;36.31;98844.38;5073056;28;20147;-50
2021/09/12 07:20:29;;;;;;;7.35;3.80;;;;;;;28.59;35.74;98845.50;5072857;28;20029;-50
2021/09/12 07:22:55;;;;;;;6.32;3.22;;;;;;;29.12;34.48;98849.03;5054943;28;20013;-50
2021/09/12 07:25:21;;;;;;;9.13;3.22;;;;;;;29.08;34.38;98848.88;5072849;28;20402;-50
2021/09/12 07:27:47;;;;;;;5.80;3.13;;;;;;;29.35;34.33;98852.38;5072746;28;20056;-51
2021/09/12 07:30:14;;;;;;;5.75;4.10;;;;;;;29.65;33.88;98856.75;5072760;28;20031;-50
2021/09/12 07:32:40;;;;;;;8.50;3.63;;;;;;;30.05;33.12;98851.06;5072731;28;20047;-51
2021/09/12 07:35:07;;;;;;;11.68;3.75;;;;;;;30.34;32.75;98851.41;5054668;28;20024;-50
2021/09/12 07:37:33;;;;;;;5.88;3.38;;;;;;;30.63;32.39;98845.19;5054674;28;20028;-51
2021/09/12 07:39:59;;;;;;;8.25;3.53;;;;;;;30.96;31.72;98852.59;5054796;28;20379;-50
2021/09/12 07:42:24;;;;;;;9.93;3.65;;;;;;;31.17;31.47;98850.66;5072531;28;20487;-50
2021/09/12 07:44:50;;;;;;;7.18;3.85;;;;;;;31.19;31.90;98850.31;5071215;28;20036;-51
2021/09/12 07:47:19;;;;;;;9.68;4.30;;;;;;;31.07;32.13;98856.50;5054489;28;20032;-50
2021/09/12 07:49:44;;;;;;;8.20;4.30;;;;;;;30.95;32.24;98851.00;5072354;28;20101;-50
2021/09/12 07:52:10;;;;;;;6.22;3.83;;;;;;;30.86;32.37;98857.25;5072371;28;20021;-51
2021/09/12 07:54:36;;;;;;;12.45;8.23;;;;;;;30.87;32.62;98849.94;5072352;28;20044;-50
2021/09/12 07:57:02;;;;;;;8.48;4.70;;;;;;;30.98;32.52;98842.22;5054172;28;20071;-50
2021/09/12 07:59:28;;;;;;;6.28;4.15;;;;;;;31.25;32.36;98851.72;5072181;28;20051;-50
2021/09/12 08:01:54;;;;;;;8.82;4.72;;;;;;;31.66;32.01;98847.31;5054415;28;20013;-50
2021/09/12 08:04:20;;;;;;;11.93;4.70;;;;;;;32.09;31.61;98850.66;5072154;28;20047;-50
2021/09/12 08:06:46;;;;;;;10.48;4.95;;;;;;;32.15;31.20;98849.28;5070861;28;20029;-51
2021/09/12 08:09:11;;;;;;;7.20;4.30;;;;;;;32.37;31.22;98850.75;5072126;28;20030;-50
2021/09/12 08:11:37;;;;;;;5.15;4.63;;;;;;;32.09;31.31;98845.22;5072145;28;20035;-51
2021/09/12 08:14:04;;;;;;;6.60;4.47;;;;;;;31.90;31.69;98856.63;5054051;28;20028;-50
2021/09/12 08:16:30;;;;;;;6.20;5.10;;;;;;;32.24;31.63;98856.19;5071783;28;20059;-50
2021/09/12 08:18:55;;;;;;;8.10;4.60;;;;;;;32.81;31.02;98853.63;5071954;28;20020;-50
2021/09/12 08:21:21;;;;;;;10.55;7.05;;;;;;;33.15;30.66;98855.00;5071874;28;20597;-50
2021/09/12 08:23:47;;;;;;;8.00;4.18;;;;;;;33.66;29.61;98857.13;5071158;28;20048;-50
2021/09/12 08:26:13;;;;;;;8.80;4.90;;;;;;;34.09;29.21;98854.66;5071880;28;20029;-50
2021/09/12 08:28:38;;;;;;;6.25;4.47;;;;;;;34.54;27.91;98859.63;5053815;28;20089;-51
2021/09/12 08:31:04;;;;;;;4.65;4.00;;;;;;;34.54;28.47;98851.44;5071838;28;20532;-50
2021/09/12 08:33:30;;;;;;;6.30;4.70;;;;;;;34.74;28.20;98852.28;5071857;28;20028;-51
2021/09/12 08:35:56;;;;;;;7.07;4.57;;;;;;;34.95;27.63;98856.56;5071727;28;20068;-50
2021/09/12 08:38:22;;;;;;;10.50;4.68;;;;;;;34.48;28.30;98861.03;5053991;28;20025;-50
2021/09/12 08:40:56;;;;;;;6.32;4.50;;;;;;;34.35;28.49;98859.56;5071658;28;20020;-50
2021/09/12 08:43:25;;;;;;;9.07;5.53;;;;;;;34.71;28.10;98855.72;5053743;28;20031;-50
2021/09/12 08:45:52;;;;;;;5.68;3.97;;;;;;;35.12;27.71;98855.38;5071702;28;20028;-50
2021/09/12 08:48:18;;;;;;;4.75;3.45;;;;;;;35.31;26.96;98858.06;5071682;28;20029;-51
2021/09/12 08:50:44;;;;;;;5.70;3.95;;;;;;;35.52;27.01;98851.44;5053662;28;20516;-51
2021/09/12 08:53:10;;;;;;;6.13;3.63;;;;;;;35.75;26.19;98849.50;5071660;28;20113;-51
2021/09/12 08:55:36;;;;;;;11.55;6.50;;;;;;;35.75;26.20;98846.78;5071569;28;20025;-50
2021/09/12 08:58:02;;;;;;;7.65;3.67;;;;;;;35.78;26.33;98851.53;5071543;28;20603;-50
2021/09/12 09:00:29;;;;;;;7.38;4.22;;;;;;;35.41;26.79;98856.69;5071408;28;20024;-51
2021/09/12 09:02:59;;;;;;;5.90;3.20;;;;;;;34.87;27.53;98860.31;5071555;28;20047;-51
2021/09/12 09:05:36;;;;;;;7.75;4.63;;;;;;;34.61;27.63;98850.78;5071492;28;20025;-51
2021/09/12 09:08:13;;;;;;;5.20;3.80;;;;;;;34.47;27.84;98839.59;5071330;28;20107;-51
2021/09/12 09:10:47;;;;;;;12.02;4.43;;;;;;;34.21;28.46;98841.00;5071445;28;20029;-51
2021/09/12 09:13:30;;;;;;;;;;;;;;;34.54;28.28;98834.28;5053933;28;20053;-51
2021/09/12 09:15:57;;;;;;;8.15;7.20;;;;;;;34.35;28.51;98844.03;5071136;28;19916;-50
2021/09/12 09:18:42;;;;;;;3.92;3.45;;;;;;;34.10;28.66;98839.91;5053444;28;20036;-51
2021/09/12 09:21:28;;;;;;;6.40;3.35;;;;;;;33.98;28.77;98838.84;5053255;28;20036;-51
2021/09/12 09:24:22;;;;;;;3.70;2.40;;;;;;;34.61;27.98;98837.16;5053353;28;20524;-51
2021/09/12 09:26:54;;;;;;;9.93;7.25;;;;;;;35.06;27.08;98835.75;5071395;28;20036;-51
2021/09/12 09:29:27;;;;;;;12.82;8.63;;;;;;;35.65;26.56;98830.19;5071312;28;20043;-51
2021/09/12 09:32:08;;;;;;;6.38;2.67;;;;;;;36.16;25.46;98827.94;5053140;28;20028;-50
2021/09/12 09:34:38;;;;;;;4.22;2.38;;;;;;;36.60;24.86;98821.09;5073240;28;20073;-51
2021/09/12 09:37:10;;;;;;;10.63;5.82;;;;;;;36.91;24.84;98819.16;5074900;28;20028;-51
2021/09/12 09:39:44;;;;;;;6.05;3.50;;;;;;;37.47;23.55;98815.44;5056863;28;20360;-51
2021/09/12 09:42:36;;;;;;;4.78;3.05;;;;;;;37.72;23.66;98812.94;5056839;28;20029;-51
2021/09/12 09:45:05;;;;;;;6.43;2.83;;;;;;;38.09;23.08;98803.84;5074984;28;20051;-50
2021/09/12 09:47:31;;;;;;;5.13;2.67;;;;;;;38.52;22.66;98806.03;5074750;28;20108;-51
2021/09/12 09:50:12;;;;;;;7.65;3.20;;;;;;;38.74;22.83;98796.69;5074687;28;20470;-51
2021/09/12 09:52:38;;;;;;;7.55;2.53;;;;;;;38.79;22.37;98792.00;5074760;28;20131;-51
2021/09/12 09:55:06;;;;;;;3.88;2.25;;;;;;;38.57;22.43;98800.16;5056606;28;20484;-51
2021/09/12 09:57:33;;;;;;;5.03;2.35;;;;;;;38.62;22.28;98799.81;5056633;28;20020;-51
2021/09/12 10:00:04;;;;;;;5.30;2.83;;;;;;;38.58;22.27;98795.44;5056492;28;20024;-51
2021/09/12 10:02:32;;;;;;;6.07;2.13;;;;;;;38.71;22.10;98793.94;5056520;28;20422;-51
2021/09/12 10:04:59;;;;;;;5.13;2.70;;;;;;;38.94;21.50;98791.66;5074365;28;20028;-51
2021/09/12 10:07:29;;;;;;;2.97;1.77;;;;;;;39.15;21.26;98790.94;5074942;28;20432;-51
2021/09/12 10:09:55;;;;;;;3.58;1.92;;;;;;;39.00;21.02;98789.34;5074294;28;20029;-51
2021/09/12 10:12:21;;;;;;;6.00;2.35;;;;;;;38.87;21.04;98786.13;5056537;28;20394;-50
2021/09/12 10:14:56;;;;;;;2.97;1.85;;;;;;;38.80;21.45;98791.63;5074297;28;20493;-51
2021/09/12 10:17:25;;;;;;;3.25;2.10;;;;;;;39.07;21.13;98785.84;5074091;28;20048;-51
2021/09/12 10:20:15;;;;;;;6.32;2.00;;;;;;;39.19;21.08;98779.19;5074128;28;20024;-51
2021/09/12 10:23:04;;;;;;;11.93;2.40;;;;;;;39.17;21.17;98768.59;5074285;28;20030;-51
2021/09/12 10:25:52;;;;;;;7.97;2.47;;;;;;;39.34;21.03;98770.56;5056068;28;20032;-50
2021/09/12 10:28:30;;;;;;;3.45;2.00;;;;;;;39.10;20.85;98771.31;5056081;28;20033;-50
2021/09/12 10:30:56;;;;;;;3.30;1.75;;;;;;;39.02;21.36;98769.72;5055911;28;20033;-50
2021/09/12 10:33:25;;;;;;;5.63;2.72;;;;;;;38.98;21.19;98764.25;5072723;28;20031;-50
2021/09/12 10:36:03;;;;;;;3.45;1.80;;;;;;;38.65;20.77;98770.81;5073766;28;20524;-51
2021/09/12 10:38:31;;;;;;;5.85;1.95;;;;;;;37.88;21.68;98763.34;5073864;28;20028;-52
2021/09/12 10:40:56;;;;;;;2.65;1.48;;;;;;;38.08;21.64;98771.31;5055721;28;20032;-51
2021/09/12 10:43:25;;;;;;;2.83;1.63;;;;;;;38.39;21.02;98760.88;5073804;28;20032;-51
2021/09/12 10:45:59;;;;;;;3.53;1.80;;;;;;;38.71;20.60;98770.03;5072713;28;20029;-51
2021/09/12 10:48:25;;;;;;;2.88;1.70;;;;;;;39.00;19.98;98763.84;5055698;28;20028;-50
2021/09/12 10:50:51;;;;;;;3.10;1.60;;;;;;;39.29;19.52;98759.19;5073530;28;20032;-50
2021/09/12 10:53:18;;;;;;;3.60;1.95;;;;;;;39.20;19.83;98765.06;5073591;28;20502;-51
2021/09/12 10:56:02;;;;;;;3.85;1.63;;;;;;;39.17;19.77;98759.56;5073429;28;20055;-51
2021/09/12 10:58:30;;;;;;;2.30;1.50;;;;;;;39.06;19.50;98760.34;5055490;28;20023;-51
2021/09/12 11:00:59;;;;;;;3.53;1.60;;;;;;;38.92;19.18;98754.81;5073230;28;20036;-51
2021/09/12 11:03:26;;;;;;;3.88;2.10;;;;;;;38.93;20.17;98759.09;5055349;28;20021;-51
2021/09/12 11:05:52;;;;;;;2.80;1.95;;;;;;;38.95;19.70;98752.06;5055271;28;20028;-50
2021/09/12 11:08:19;;;;;;;2.28;1.35;;;;;;;38.75;19.81;98746.13;5073334;28;20024;-51
2021/09/12 11:10:47;;;;;;;4.15;1.60;;;;;;;38.39;19.94;98738.94;5055215;28;20490;-51
2021/09/12 11:13:23;;;;;;;4.05;1.50;;;;;;;38.02;19.99;98737.97;5073093;28;20032;-51
2021/09/12 11:16:03;;;;;;;2.72;1.30;;;;;;;38.19;20.26;98733.00;5072751;28;20033;-51
2021/09/12 11:18:51;;;;;;;4.00;1.27;;;;;;;38.44;20.14;98717.44;5073059;28;20043;-50
2021/09/12 11:21:37;;;;;;;6.45;2.45;;;;;;;38.10;20.51;98723.16;5072912;28;20503;-50
2021/09/12 11:24:13;;;;;;;6.80;1.92;;;;;;;38.19;20.43;98714.59;5073007;28;20029;-51
2021/09/12 11:26:44;;;;;;;2.45;1.45;;;;;;;38.37;20.58;98714.66;5055238;28;20036;-51
2021/09/12 11:29:35;;;;;;;6.32;2.10;;;;;;;38.51;21.08;98713.91;5072960;28;20025;-50
2021/09/12 11:32:08;;;;;;;5.97;1.80;;;;;;;38.16;21.42;98712.63;5054058;28;20068;-51
2021/09/12 11:34:35;;;;;;;5.33;1.37;;;;;;;38.23;21.18;98712.63;5072804;28;20108;-51